Terminal Aerodrome Forecast
Issued by NWS

Home | Current Version | Previous Version | Text Only | Print | Product List | Glossary On
Versions: 1 2 3 4 5 6 7 8 9 10 11 12 13
000
FTPQ31 PGUM 241244 AAQ
TAFTYA
TAF AMD
PTYA 241244Z 2413/2512 02008KT P6SM VCTS SCT015CB OVC130
      TEMPO 2413/2415 3SM +SHRA OVC015
     FM241700 03008KT P6SM VCSH SCT015 SCT030 BKN130
     FM242200 05011KT P6SM VCSH SCT018 BKN130=

USA.gov is the U.S. government's official web portal to all federal, state and local government web resources and services.